Hlavní strana
METAR-TAF:

METAR-TAF

Letiště :

Ronneby, Švédsko

zeměpisná šířka: 56-16N, zeměpisná délka: 015-17E, výška: 58 m

Aktuální stav počasí

Zpráva byla vytvořena před 39 minutami, v 15:50 UTC
Severoseverovýchodní vítr 13 kt
Teplota 5°C
Vlhkost vzduchu 93%
Tlak 1034 hPa
Viditelnost 10 km a více
Skoro jasno ve výšce 500 ft
Skoro jasno ve výšce 1100 ft
Oblačno až skoro zataženo ve výšce 1400 ft
slabé dešťové přeháňky

METAR: ESDF 181550Z 03013KT 9999 -SHRA FEW005 FEW011 BKN014 05/04 Q1034

Čas: 17:29 (16:29 UTC)

Předpověď počasí

Zpráva byla vytvořena před 1 hodinou a 59 minutami, v 14:30 UTC
Předpověď platná od 18 v 15 UTC do 18 v 23 UTC
Severovýchodní vítr 14 kt s nárazy do 24 kt
Viditelnost 10 km a více
Skoro jasno ve výšce 1500 ft
Oblačno až skoro zataženo ve výšce 2500 ft
slabé dešťové přeháňky
Dočasný
od 18 v 15 UTC do 18 v 18 UTC
Oblačno až skoro zataženo ve výšce 1400 ft

TAF: ESDF 181430Z 1815/1823 04014G24KT 9999 -SHRA FEW015 BKN025 TEMPO 1815/1818 BKN014

Stav a předpovědi počasí z více než 4 000 letišť (zprávy METAR a TAF).

Červené a žluté tečky na mapě představují dostupné meteorologické stanice.

Když kurzor umístíte na tečku, zobrazí se název stanice.

Pak kliknutím zobrazíte stav a předpověď počasí.

Chcete-li změnit mapu, kliknutím na zelené tlačítko se znaménkem +mapu přiblížíte, kliknutím na zelené tlačítko se znaménkem – mapu oddálíte a kliknutím na zelené šipky přejdete na sousední mapy.


METAR-TAF: